Time;durP1;ratioP1;P1;durP2;ratioP2;P2;SDS_P1;SDS_P2;PMS_P1;PMS_P2;Temp;Humidity;BMP_temperature;BMP_pressure;BME280_temperature;BME280_humidity;BME280_pressure;Samples;Min_cycle;Max_cycle;Signal;HPM_P1;HPM_P2
2021/12/23 00:00:57;;;;;;;;;;;19.80;57.30;;;;;;5054922;28;1362;-69
2021/12/23 00:03:22;;;;;;;;;;;19.70;57.20;;;;;;5054660;28;1493;-68
2021/12/23 00:05:47;;;;;;;;;;;19.70;57.20;;;;;;5054731;28;1947;-69
2021/12/23 00:08:13;;;;;;;;;;;19.70;57.20;;;;;;5053148;28;1060;-68
2021/12/23 00:10:40;;;;;;;;;;;19.70;57.20;;;;;;5049950;28;1316;-67
2021/12/23 00:13:05;;;;;;;;;;;19.70;57.20;;;;;;5074510;28;1315;-68
2021/12/23 00:16:00;;;;;;;;;;;19.80;57.30;;;;;;5074349;28;1083;-67
2021/12/23 00:23:47;;;;;;;;;;;19.70;57.30;;;;;;5074102;28;1952;-68
2021/12/23 00:26:12;;;;;;;;;;;19.70;57.30;;;;;;5056557;28;1134;-70
2021/12/23 00:28:38;;;;;;;;;;;19.70;57.30;;;;;;5055936;28;1365;-70
2021/12/23 00:31:03;;;;;;;;;;;19.70;57.30;;;;;;5074190;28;1353;-70
2021/12/23 00:33:29;;;;;;;;;;;19.70;57.40;;;;;;5073804;28;1358;-70
2021/12/23 00:35:55;;;;;;;;;;;19.70;57.40;;;;;;5074120;28;1063;-71
2021/12/23 00:38:26;;;;;;;;;;;19.70;57.40;;;;;;5073831;28;1275;-70
2021/12/23 00:40:52;;;;;;;;;;;19.70;57.40;;;;;;5056735;28;1290;-69
2021/12/23 00:43:18;;;;;;;;;;;19.70;57.40;;;;;;5073913;28;1562;-69
2021/12/23 00:45:43;;;;;;;;;;;19.70;57.40;;;;;;5055946;28;1969;-69
2021/12/23 00:48:09;;;;;;;;;;;19.70;57.50;;;;;;5073719;28;1428;-71
2021/12/23 00:50:34;;;;;;;;;;;19.70;57.40;;;;;;5055887;28;1391;-70
2021/12/23 00:53:05;;;;;;;;;;;19.60;57.40;;;;;;5073613;28;1389;-69
2021/12/23 00:55:30;;;;;;;;;;;19.70;57.50;;;;;;5056664;28;1460;-70
2021/12/23 00:57:55;;;;;;;;;;;19.60;57.40;;;;;;5073602;28;1389;-71
2021/12/23 01:00:21;;;;;;;;;;;19.70;57.50;;;;;;5073839;28;1306;-71
2021/12/23 01:02:47;;;;;;;;;;;19.70;57.50;;;;;;5054794;28;1455;-70
2021/12/23 01:05:13;;;;;;;;;;;19.60;57.50;;;;;;5053447;28;1902;-70
2021/12/23 01:07:38;;;;;;;;;;;19.60;57.50;;;;;;5035345;28;1366;-70
2021/12/23 01:10:04;;;;;;;;;;;19.60;57.50;;;;;;5057414;28;1205;-71
2021/12/23 01:12:36;;;;;;;;;;;19.60;57.50;;;;;;5053576;28;1354;-71
2021/12/23 01:15:16;;;;;;;;;;;19.60;57.50;;;;;;5053294;28;1299;-71
2021/12/23 01:17:54;;;;;;;;;;;19.60;57.50;;;;;;5052975;28;1337;-71
2021/12/23 01:20:25;;;;;;;;;;;19.60;57.60;;;;;;5053332;28;1349;-71
2021/12/23 01:22:51;;;;;;;;;;;19.60;57.60;;;;;;5036412;28;1344;-71
2021/12/23 01:25:16;;;;;;;;;;;19.60;57.60;;;;;;5053187;28;1964;-71
2021/12/23 01:27:41;;;;;;;;;;;19.60;57.60;;;;;;5053061;28;1052;-70
2021/12/23 01:30:07;;;;;;;;;;;19.60;57.60;;;;;;5052974;28;1301;-69
2021/12/23 01:32:32;;;;;;;;;;;19.60;57.60;;;;;;5052687;28;1343;-71
2021/12/23 01:34:58;;;;;;;;;;;19.60;57.70;;;;;;5053108;28;1401;-69
2021/12/23 01:37:23;;;;;;;;;;;19.60;57.70;;;;;;5052965;28;1276;-69
2021/12/23 01:39:49;;;;;;;;;;;19.60;57.70;;;;;;5034910;28;1302;-70
2021/12/23 01:42:14;;;;;;;;;;;19.60;57.70;;;;;;5052978;28;1366;-70
2021/12/23 01:44:40;;;;;;;;;;;19.60;57.70;;;;;;5052695;28;1910;-70
2021/12/23 01:47:05;;;;;;;;;;;19.60;57.70;;;;;;5052750;28;1350;-70
2021/12/23 01:49:31;;;;;;;;;;;19.60;57.70;;;;;;5052618;28;1350;-70
2021/12/23 01:51:57;;;;;;;;;;;19.60;57.70;;;;;;5051855;28;1503;-70
2021/12/23 01:54:22;;;;;;;;;;;19.60;57.70;;;;;;5052846;28;1272;-69
2021/12/23 01:56:48;;;;;;;;;;;19.50;57.60;;;;;;5052863;28;1155;-70
2021/12/23 01:59:15;;;;;;;;;;;19.60;57.70;;;;;;5034521;28;1267;-68
2021/12/23 02:01:41;;;;;;;;;;;19.50;57.70;;;;;;5034782;28;1276;-68
2021/12/23 02:04:07;;;;;;;;;;;19.60;57.70;;;;;;5052525;28;1959;-69
2021/12/23 02:06:32;;;;;;;;;;;19.50;57.70;;;;;;5062072;28;1298;-68
2021/12/23 02:08:57;;;;;;;;;;;19.50;57.70;;;;;;5064926;28;1428;-68
2021/12/23 02:11:23;;;;;;;;;;;19.50;57.70;;;;;;5057787;28;1286;-69
2021/12/23 02:13:48;;;;;;;;;;;19.50;57.70;;;;;;5054610;28;1364;-67
2021/12/23 02:16:14;;;;;;;;;;;19.50;57.70;;;;;;5072643;28;1067;-68
2021/12/23 02:18:39;;;;;;;;;;;19.50;57.70;;;;;;5058794;28;1130;-69
2021/12/23 02:21:05;;;;;;;;;;;19.50;57.70;;;;;;5072537;28;1059;-70
2021/12/23 02:23:30;;;;;;;;;;;19.50;57.70;;;;;;5054707;28;1184;-68
2021/12/23 02:25:56;;;;;;;;;;;19.50;57.70;;;;;;5072833;28;1972;-68
2021/12/23 02:28:22;;;;;;;;;;;19.50;57.70;;;;;;5054132;28;1282;-68
2021/12/23 02:30:51;;;;;;;;;;;19.50;57.70;;;;;;5054379;28;1257;-70
2021/12/23 02:33:16;;;;;;;;;;;19.50;57.70;;;;;;5072368;28;1346;-68
2021/12/23 02:35:42;;;;;;;;;;;19.50;57.70;;;;;;5072695;28;1063;-69
2021/12/23 02:38:07;;;;;;;;;;;19.50;57.70;;;;;;5070103;28;1333;-68
2021/12/23 02:40:37;;;;;;;;;;;19.50;57.70;;;;;;5061125;28;1416;-68
2021/12/23 02:43:09;;;;;;;;;;;19.50;57.70;;;;;;5069849;28;1381;-68
2021/12/23 02:45:35;;;;;;;;;;;19.50;57.70;;;;;;5051134;28;1949;-68
2021/12/23 02:48:00;;;;;;;;;;;19.50;57.70;;;;;;5055068;28;1084;-68
2021/12/23 02:50:26;;;;;;;;;;;19.50;57.70;;;;;;5062674;28;1176;-67
2021/12/23 02:52:51;;;;;;;;;;;19.50;57.70;;;;;;5068515;28;1365;-68
2021/12/23 02:55:17;;;;;;;;;;;19.50;57.70;;;;;;5072317;28;1301;-68
2021/12/23 02:57:42;;;;;;;;;;;19.50;57.70;;;;;;5071673;28;1260;-69
2021/12/23 03:00:08;;;;;;;;;;;19.50;57.70;;;;;;5072066;28;1377;-68
2021/12/23 03:02:36;;;;;;;;;;;19.50;57.80;;;;;;5056479;28;1369;-68
2021/12/23 03:05:01;;;;;;;;;;;19.50;57.80;;;;;;5037991;28;1898;-68
2021/12/23 03:07:27;;;;;;;;;;;19.50;57.80;;;;;;5055677;28;1311;-69
2021/12/23 03:09:52;;;;;;;;;;;19.50;57.80;;;;;;5060719;28;1094;-68
2021/12/23 03:12:18;;;;;;;;;;;19.50;57.80;;;;;;5055412;28;1269;-68
2021/12/23 03:14:43;;;;;;;;;;;19.50;57.80;;;;;;5055579;28;1281;-68
2021/12/23 03:17:09;;;;;;;;;;;19.50;57.70;;;;;;5037930;28;1361;-68
2021/12/23 03:19:34;;;;;;;;;;;19.50;57.80;;;;;;5055363;28;1335;-68
2021/12/23 03:21:59;;;;;;;;;;;19.50;57.80;;;;;;5055359;28;1255;-69
2021/12/23 03:24:25;;;;;;;;;;;19.50;57.80;;;;;;5037702;28;1955;-68
2021/12/23 03:26:51;;;;;;;;;;;19.40;57.70;;;;;;5045284;28;1134;-68
2021/12/23 03:29:16;;;;;;;;;;;19.40;57.80;;;;;;5074977;28;1306;-69
2021/12/23 03:31:42;;;;;;;;;;;19.40;57.70;;;;;;5072003;28;1313;-70
2021/12/23 03:34:07;;;;;;;;;;;19.40;57.80;;;;;;5065367;28;1520;-68
2021/12/23 03:36:32;;;;;;;;;;;19.40;57.70;;;;;;5072009;28;1373;-68
2021/12/23 03:38:58;;;;;;;;;;;19.40;57.80;;;;;;5064722;28;1275;-70
2021/12/23 03:41:23;;;;;;;;;;;19.40;57.80;;;;;;5061762;28;1343;-68
2021/12/23 03:43:49;;;;;;;;;;;19.40;57.80;;;;;;5074833;28;1966;-69
2021/12/23 03:46:14;;;;;;;;;;;19.40;57.80;;;;;;5057306;28;1327;-71
2021/12/23 03:48:39;;;;;;;;;;;19.40;57.80;;;;;;5057025;28;1369;-68
2021/12/23 03:51:05;;;;;;;;;;;19.40;57.80;;;;;;5074907;28;1352;-68
2021/12/23 03:53:30;;;;;;;;;;;19.40;57.80;;;;;;5065906;28;1247;-69
2021/12/23 03:55:56;;;;;;;;;;;19.40;57.80;;;;;;5043732;28;1138;-68
2021/12/23 03:58:21;;;;;;;;;;;19.40;57.90;;;;;;5074705;28;1229;-68
2021/12/23 04:00:47;;;;;;;;;;;19.40;57.90;;;;;;5072579;28;1230;-69
2021/12/23 04:03:12;;;;;;;;;;;19.40;57.90;;;;;;5054880;28;1420;-67
2021/12/23 04:05:37;;;;;;;;;;;19.40;57.90;;;;;;5036771;28;1971;-68
2021/12/23 04:08:03;;;;;;;;;;;19.40;57.90;;;;;;5063065;28;1395;-69
2021/12/23 04:10:28;;;;;;;;;;;19.40;57.90;;;;;;5054724;28;1205;-67
2021/12/23 04:12:54;;;;;;;;;;;19.40;57.90;;;;;;5054175;28;1309;-68
2021/12/23 04:15:19;;;;;;;;;;;19.40;57.90;;;;;;5035853;28;1414;-69
2021/12/23 04:17:45;;;;;;;;;;;19.40;57.80;;;;;;5054272;28;1053;-70
2021/12/23 04:20:21;;;;;;;;;;;19.40;57.80;;;;;;5036769;28;1400;-71
2021/12/23 04:22:51;;;;;;;;;;;19.40;57.80;;;;;;5054570;28;1334;-68
2021/12/23 04:25:16;;;;;;;;;;;19.40;57.80;;;;;;5036205;28;1958;-68
2021/12/23 04:27:43;;;;;;;;;;;19.40;57.70;;;;;;5053961;28;1127;-68
2021/12/23 04:30:09;;;;;;;;;;;19.40;57.80;;;;;;5057290;28;1126;-68
2021/12/23 04:32:35;;;;;;;;;;;19.40;57.70;;;;;;5047350;28;1172;-68
2021/12/23 04:35:00;;;;;;;;;;;19.40;57.70;;;;;;5043396;28;1134;-69
2021/12/23 04:37:25;;;;;;;;;;;19.40;57.70;;;;;;5074216;28;1172;-68
2021/12/23 04:39:51;;;;;;;;;;;19.40;57.70;;;;;;5073637;28;1253;-69
2021/12/23 04:42:16;;;;;;;;;;;19.40;57.70;;;;;;5056188;28;1402;-69
2021/12/23 04:44:42;;;;;;;;;;;19.40;57.70;;;;;;5073939;28;1914;-67
2021/12/23 04:47:07;;;;;;;;;;;19.40;57.70;;;;;;5073975;28;1083;-68
2021/12/23 04:49:33;;;;;;;;;;;19.40;57.70;;;;;;5073921;28;1289;-69
2021/12/23 04:51:58;;;;;;;;;;;19.40;57.70;;;;;;5071625;28;1481;-67
2021/12/23 04:54:23;;;;;;;;;;;19.40;57.70;;;;;;5054648;28;1244;-69
2021/12/23 04:56:49;;;;;;;;;;;19.40;57.70;;;;;;5052546;28;1215;-69
2021/12/23 04:59:15;;;;;;;;;;;19.40;57.70;;;;;;5030254;28;1424;-67
2021/12/23 05:01:40;;;;;;;;;;;19.40;57.70;;;;;;5053224;28;1251;-68
2021/12/23 05:04:06;;;;;;;;;;;19.40;57.70;;;;;;5055180;28;1898;-68
2021/12/23 05:06:31;;;;;;;;;;;19.40;57.70;;;;;;5053268;28;1208;-67
2021/12/23 05:08:56;;;;;;;;;;;19.40;57.70;;;;;;5046059;28;1264;-67
2021/12/23 05:11:22;;;;;;;;;;;19.40;57.70;;;;;;5050387;28;1261;-68
2021/12/23 05:13:47;;;;;;;;;;;19.40;57.70;;;;;;5048945;28;1260;-67
2021/12/23 05:16:16;;;;;;;;;;;19.40;57.70;;;;;;5025807;28;1303;-67
2021/12/23 05:18:41;;;;;;;;;;;19.40;57.70;;;;;;5049637;28;1394;-66
2021/12/23 05:21:07;;;;;;;;;;;19.40;57.70;;;;;;5053282;28;1378;-66
2021/12/23 05:23:32;;;;;;;;;;;19.40;57.80;;;;;;5032800;28;1875;-68
2021/12/23 05:25:58;;;;;;;;;;;19.40;57.80;;;;;;5035977;28;1902;-67
2021/12/23 05:28:23;;;;;;;;;;;19.40;57.80;;;;;;5041960;28;1134;-66
2021/12/23 05:30:49;;;;;;;;;;;19.40;57.80;;;;;;5043616;28;1036;-66
2021/12/23 05:33:14;;;;;;;;;;;19.40;57.80;;;;;;5071917;28;1428;-67
2021/12/23 05:35:39;;;;;;;;;;;19.40;57.70;;;;;;5072304;28;1269;-66
2021/12/23 05:38:05;;;;;;;;;;;19.40;57.70;;;;;;5071620;28;1089;-68
2021/12/23 05:40:32;;;;;;;;;;;19.40;57.60;;;;;;5071407;28;1325;-68
2021/12/23 05:42:57;;;;;;;;;;;19.50;57.60;;;;;;5071992;28;1364;-68
2021/12/23 05:45:23;;;;;;;;;;;19.50;58.10;;;;;;5071716;28;1963;-68
2021/12/23 05:47:49;;;;;;;;;;;19.60;57.40;;;;;;5054710;28;1634;-66
2021/12/23 05:50:14;;;;;;;;;;;19.60;57.30;;;;;;5073184;28;1298;-65
2021/12/23 05:52:40;;;;;;;;;;;19.60;57.20;;;;;;5054968;28;1480;-65
2021/12/23 05:55:05;;;;;;;;;;;19.60;57.20;;;;;;5073075;28;1321;-66
2021/12/23 05:57:31;;;;;;;;;;;19.70;57.20;;;;;;5054407;28;1158;-65
2021/12/23 05:59:56;;;;;;;;;;;19.70;57.10;;;;;;5072885;28;1273;-66
2021/12/23 06:02:22;;;;;;;;;;;19.70;57.00;;;;;;5057266;28;1254;-66
2021/12/23 06:04:47;;;;;;;;;;;19.70;57.00;;;;;;5052780;28;1886;-65
2021/12/23 06:07:12;;;;;;;;;;;19.70;56.90;;;;;;5052838;28;1310;-65
2021/12/23 06:09:38;;;;;;;;;;;19.80;56.90;;;;;;5042298;28;1115;-66
2021/12/23 06:12:03;;;;;;;;;;;19.80;56.80;;;;;;5053365;28;1273;-67
2021/12/23 06:14:29;;;;;;;;;;;19.80;56.80;;;;;;5034787;28;1244;-66
2021/12/23 06:16:54;;;;;;;;;;;19.80;56.80;;;;;;5052643;28;1322;-66
2021/12/23 06:19:20;;;;;;;;;;;19.80;56.70;;;;;;5052401;28;1080;-68
2021/12/23 06:21:45;;;;;;;;;;;19.80;56.70;;;;;;5052397;28;1358;-67
2021/12/23 06:24:10;;;;;;;;;;;19.80;56.70;;;;;;5052113;28;1898;-67
2021/12/23 06:26:36;;;;;;;;;;;19.80;56.70;;;;;;5052333;28;1139;-68
2021/12/23 06:29:01;;;;;;;;;;;19.80;56.60;;;;;;5052369;28;1068;-67
2021/12/23 06:31:27;;;;;;;;;;;19.80;56.60;;;;;;5052146;28;1278;-67
2021/12/23 06:33:52;;;;;;;;;;;19.80;57.20;;;;;;5047539;28;1938;-67
2021/12/23 06:36:18;;;;;;;;;;;19.90;56.60;;;;;;5033493;28;1291;-68
2021/12/23 06:38:43;;;;;;;;;;;19.90;56.60;;;;;;5061350;28;1229;-67
2021/12/23 06:41:09;;;;;;;;;;;19.90;56.60;;;;;;5069479;28;1198;-68
2021/12/23 06:43:34;;;;;;;;;;;19.80;56.50;;;;;;5049668;28;1192;-66
2021/12/23 06:46:00;;;;;;;;;;;19.90;56.50;;;;;;5029656;28;2028;-66
2021/12/23 06:48:26;;;;;;;;;;;19.90;56.50;;;;;;5030368;28;1115;-66
2021/12/23 06:50:54;;;;;;;;;;;19.90;56.50;;;;;;5056156;28;1246;-66
2021/12/23 06:53:20;;;;;;;;;;;19.90;56.50;;;;;;5055860;28;1365;-66
2021/12/23 06:55:45;;;;;;;;;;;19.90;56.50;;;;;;5056044;28;1310;-65
2021/12/23 06:58:10;;;;;;;;;;;19.90;56.50;;;;;;5055824;28;1299;-67
2021/12/23 07:00:36;;;;;;;;;;;19.90;56.50;;;;;;5056120;28;2199;-66
2021/12/23 07:03:01;;;;;;;;;;;19.90;56.50;;;;;;5056228;28;1342;-68
2021/12/23 07:05:27;;;;;;;;;;;19.90;56.50;;;;;;5055794;28;1910;-66
2021/12/23 07:10:22;;;;;;;;;;;19.90;56.50;;;;;;5060705;28;1138;-67
2021/12/23 07:12:47;;;;;;;;;;;19.90;56.50;;;;;;5038098;28;1201;-66
2021/12/23 07:15:13;;;;;;;;;;;19.90;56.50;;;;;;5043515;28;1111;-65
2021/12/23 07:17:38;;;;;;;;;;;19.90;56.50;;;;;;5075366;28;1079;-70
2021/12/23 07:20:04;;;;;;;;;;;19.90;56.50;;;;;;5074841;28;1100;-65
2021/12/23 07:22:29;;;;;;;;;;;19.90;57.00;;;;;;5062775;28;1334;-66
2021/12/23 07:24:55;;;;;;;;;;;19.90;56.50;;;;;;5075457;28;1918;-65
2021/12/23 07:27:21;;;;;;;;;;;19.90;56.50;;;;;;5057705;28;1345;-65
2021/12/23 07:29:46;;;;;;;;;;;19.90;56.40;;;;;;5057165;28;1322;-68
2021/12/23 07:32:12;;;;;;;;;;;19.90;56.40;;;;;;5068059;28;1200;-65
2021/12/23 07:34:40;;;;;;;;;;;19.90;56.40;;;;;;5069074;28;1374;-67
2021/12/23 07:37:05;;;;;;;;;;;19.90;56.40;;;;;;5057646;28;1083;-66
2021/12/23 07:39:31;;;;;;;;;;;19.90;56.40;;;;;;5074901;28;1266;-68
2021/12/23 07:41:56;;;;;;;;;;;19.90;56.40;;;;;;5075164;28;1390;-66
2021/12/23 07:44:22;;;;;;;;;;;19.90;56.40;;;;;;5075130;28;1923;-67
2021/12/23 07:46:48;;;;;;;;;;;19.90;56.40;;;;;;5075086;28;1313;-68
2021/12/23 07:49:13;;;;;;;;;;;19.90;56.40;;;;;;5055481;28;1261;-67
2021/12/23 07:51:39;;;;;;;;;;;19.90;56.40;;;;;;5074692;28;1294;-67
2021/12/23 07:54:04;;;;;;;;;;;19.90;56.40;;;;;;5075116;28;1319;-66
2021/12/23 07:56:29;;;;;;;;;;;19.90;56.40;;;;;;5074806;28;1345;-66
2021/12/23 07:58:55;;;;;;;;;;;19.90;56.40;;;;;;5074637;28;1254;-66
2021/12/23 08:01:20;;;;;;;;;;;19.90;56.40;;;;;;5049819;28;1382;-67
2021/12/23 08:03:46;;;;;;;;;;;19.90;56.40;;;;;;5054835;28;1959;-68
2021/12/23 08:06:11;;;;;;;;;;;19.90;56.40;;;;;;5056942;28;1343;-66
2021/12/23 08:08:36;;;;;;;;;;;19.90;56.30;;;;;;5070361;28;1350;-66
2021/12/23 08:11:02;;;;;;;;;;;19.90;56.30;;;;;;5056773;28;1401;-69
2021/12/23 08:13:28;;;;;;;;;;;19.90;56.30;;;;;;5061653;28;1133;-65
2021/12/23 08:15:53;;;;;;;;;;;20.00;56.30;;;;;;5047323;28;1210;-65
2021/12/23 08:18:19;;;;;;;;;;;20.00;56.30;;;;;;5074233;28;1328;-65
2021/12/23 08:20:45;;;;;;;;;;;20.10;56.20;;;;;;5042790;28;1150;-69
2021/12/23 08:23:10;;;;;;;;;;;20.20;56.10;;;;;;5074425;28;1329;-66
2021/12/23 08:25:35;;;;;;;;;;;20.30;56.00;;;;;;5074176;28;1898;-65
2021/12/23 08:28:01;;;;;;;;;;;20.50;55.80;;;;;;5074244;28;1264;-66
2021/12/23 08:30:26;;;;;;;;;;;20.60;55.60;;;;;;5074246;28;1304;-65
2021/12/23 08:32:52;;;;;;;;;;;20.70;55.30;;;;;;5056135;28;1379;-65
2021/12/23 08:35:17;;;;;;;;;;;20.90;55.00;;;;;;5073963;28;1248;-66
2021/12/23 08:37:46;;;;;;;;;;;21.00;54.70;;;;;;5073988;28;1262;-65
2021/12/23 08:40:13;;;;;;;;;;;21.10;54.40;;;;;;5073773;28;1296;-67
2021/12/23 08:42:38;;;;;;;;;;;21.20;54.10;;;;;;5061686;28;1251;-66
2021/12/23 08:45:04;;;;;;;;;;;21.40;53.90;;;;;;5072936;28;1910;-67
2021/12/23 08:47:30;;;;;;;;;;;21.50;53.60;;;;;;5073678;28;1067;-69
2021/12/23 08:49:56;;;;;;;;;;;21.60;53.40;;;;;;5042378;28;1063;-66
2021/12/23 08:52:21;;;;;;;;;;;21.60;53.10;;;;;;5061814;28;1289;-66
2021/12/23 08:54:46;;;;;;;;;;;21.70;53.00;;;;;;5040875;28;1107;-65
2021/12/23 08:57:12;;;;;;;;;;;21.80;52.80;;;;;;5041296;28;1055;-66
2021/12/23 08:59:37;;;;;;;;;;;21.90;52.70;;;;;;5046437;28;1060;-65
2021/12/23 09:02:03;;;;;;;;;;;21.90;52.60;;;;;;5046296;28;1358;-65
2021/12/23 09:04:28;;;;;;;;;;;21.90;52.60;;;;;;5053731;28;1971;-67
2021/12/23 09:06:54;;;;;;;;;;;22.00;52.50;;;;;;5041230;28;1067;-65
2021/12/23 09:09:19;;;;;;;;;;;21.90;52.40;;;;;;5061115;28;1383;-65
2021/12/23 09:11:45;;;;;;;;;;;22.00;52.50;;;;;;5053245;28;1248;-66
2021/12/23 09:14:10;;;;;;;;;;;22.00;52.50;;;;;;5049194;28;1056;-66
2021/12/23 09:16:35;;;;;;;;;;;22.00;52.60;;;;;;5041725;28;1068;-65
2021/12/23 09:19:01;;;;;;;;;;;22.00;52.60;;;;;;5056081;28;1146;-66
2021/12/23 09:21:26;;;;;;;;;;;22.00;52.70;;;;;;5073138;28;1799;-67
2021/12/23 09:23:52;;;;;;;;;;;22.00;52.70;;;;;;5073191;28;1959;-65
2021/12/23 09:26:17;;;;;;;;;;;22.00;52.70;;;;;;5073078;28;1102;-65
2021/12/23 09:29:03;;;;;;;;;;;21.90;52.70;;;;;;5073073;28;1319;-66
2021/12/23 09:34:12;;;;;;;;;;;21.90;52.60;;;;;;5073121;28;1388;-66
2021/12/23 09:36:38;;;;;;;;;;;21.90;52.60;;;;;;5069849;28;1600;-66
2021/12/23 09:39:04;;;;;;;;;;;21.90;52.70;;;;;;5062627;28;1278;-69
2021/12/23 09:41:29;;;;;;;;;;;21.90;52.70;;;;;;5052682;28;1245;-66
2021/12/23 09:43:57;;;;;;;;;;;21.90;52.70;;;;;;5052919;28;1906;-67
2021/12/23 09:46:22;;;;;;;;;;;21.90;52.70;;;;;;5069401;28;1330;-66
2021/12/23 09:48:48;;;;;;;;;;;21.80;52.70;;;;;;5062665;28;1111;-67
2021/12/23 09:51:14;;;;;;;;;;;21.80;52.80;;;;;;5051133;28;1022;-66
2021/12/23 09:53:40;;;;;;;;;;;21.80;52.90;;;;;;5073351;28;1353;-66
2021/12/23 09:56:05;;;;;;;;;;;21.70;52.90;;;;;;5072645;28;1305;-66
2021/12/23 09:58:31;;;;;;;;;;;21.70;53.00;;;;;;5072390;28;1260;-68
2021/12/23 10:00:56;;;;;;;;;;;21.70;53.10;;;;;;5069112;28;1282;-66
2021/12/23 10:03:22;;;;;;;;;;;21.70;53.10;;;;;;5052839;28;1286;-66
2021/12/23 10:05:48;;;;;;;;;;;21.60;53.20;;;;;;5051293;28;1902;-66
2021/12/23 10:08:14;;;;;;;;;;;21.60;53.30;;;;;;5051237;28;1115;-66
2021/12/23 10:10:46;;;;;;;;;;;21.60;53.30;;;;;;5030343;28;1115;-66
2021/12/23 10:26:59;;;;;;;;;;;21.60;53.40;;;;;;5071950;28;1187;-67
2021/12/23 10:30:27;;;;;;;;;;;21.40;53.30;;;;;;5072303;28;1369;-66
2021/12/23 10:33:10;;;;;;;;;;;21.40;53.40;;;;;;5043349;28;1235;-66
2021/12/23 10:38:26;;;;;;;;;;;21.40;53.50;;;;;;5042513;28;1170;-69
2021/12/23 10:40:52;;;;;;;;;;;21.40;53.60;;;;;;5042280;28;1071;-66
2021/12/23 10:43:25;;;;;;;;;;;21.40;53.60;;;;;;5065562;28;1275;-67
2021/12/23 10:45:56;;;;;;;;;;;21.30;53.60;;;;;;5065802;28;1910;-65
2021/12/23 10:48:22;;;;;;;;;;;21.30;53.70;;;;;;5039474;28;1072;-66
2021/12/23 10:50:57;;;;;;;;;;;21.30;53.80;;;;;;5052471;28;1235;-66
2021/12/23 10:59:08;;;;;;;;;;;21.20;54.00;;;;;;5058479;28;1075;-69
2021/12/23 11:01:36;;;;;;;;;;;21.20;54.00;;;;;;5063272;28;1286;-66
2021/12/23 11:04:03;;;;;;;;;;;21.20;54.00;;;;;;5034775;28;1897;-67
2021/12/23 11:06:35;;;;;;;;;;;21.10;54.00;;;;;;5052144;28;1285;-65
2021/12/23 11:09:36;;;;;;;;;;;21.20;54.00;;;;;;5050461;28;1401;-68
2021/12/23 11:36:17;;;;;;;;;;;21.10;54.20;;;;;;5040228;28;1358;-66
2021/12/23 11:43:48;;;;;;;;;;;21.10;54.10;;;;;;5038531;28;1315;-66
2021/12/23 11:46:17;;;;;;;;;;;21.10;54.10;;;;;;5038001;28;1911;-66
2021/12/23 11:48:45;;;;;;;;;;;21.20;54.00;;;;;;5064482;28;1302;-65
2021/12/23 11:51:21;;;;;;;;;;;21.20;54.00;;;;;;5074677;28;1340;-66
2021/12/23 11:53:48;;;;;;;;;;;21.20;54.00;;;;;;5058744;28;1313;-68
2021/12/23 11:56:14;;;;;;;;;;;21.20;54.00;;;;;;5069608;28;1157;-65
2021/12/23 11:58:44;;;;;;;;;;;21.20;54.00;;;;;;5071788;28;1263;-65
2021/12/23 12:01:20;;;;;;;;;;;21.20;54.00;;;;;;5047288;28;927;-67
2021/12/23 12:03:52;;;;;;;;;;;21.20;54.00;;;;;;5054554;28;1322;-66
2021/12/23 12:06:18;;;;;;;;;;;21.20;54.00;;;;;;5054633;28;1898;-65
2021/12/23 12:08:43;;;;;;;;;;;21.20;54.00;;;;;;5050406;28;1342;-67
2021/12/23 12:11:12;;;;;;;;;;;21.20;54.00;;;;;;5063161;28;1122;-68
2021/12/23 12:13:38;;;;;;;;;;;21.20;54.00;;;;;;5054563;28;1333;-66
2021/12/23 12:16:03;;;;;;;;;;;21.20;54.10;;;;;;5054278;28;1337;-67
2021/12/23 12:18:29;;;;;;;;;;;21.20;54.10;;;;;;5036249;28;1530;-65
2021/12/23 12:21:02;;;;;;;;;;;21.10;54.10;;;;;;5036599;28;1353;-65
2021/12/23 12:23:31;;;;;;;;;;;21.10;54.10;;;;;;5054132;28;1339;-67
2021/12/23 12:25:57;;;;;;;;;;;21.20;54.10;;;;;;5036607;28;1945;-65
2021/12/23 12:28:24;;;;;;;;;;;21.10;54.10;;;;;;5053984;28;1327;-65
2021/12/23 12:30:49;;;;;;;;;;;21.10;54.10;;;;;;5054184;28;1275;-67
2021/12/23 12:33:18;;;;;;;;;;;21.10;54.20;;;;;;5053876;28;1309;-66
2021/12/23 12:35:47;;;;;;;;;;;21.10;54.20;;;;;;5059567;28;1154;-68
2021/12/23 12:38:17;;;;;;;;;;;21.10;54.30;;;;;;5055553;28;1959;-65
2021/12/23 12:40:56;;;;;;;;;;;21.10;54.30;;;;;;5024391;28;1111;-66
2021/12/23 12:43:31;;;;;;;;;;;21.10;54.30;;;;;;5051374;28;1275;-65
2021/12/23 12:45:56;;;;;;;;;;;21.10;54.30;;;;;;5049247;28;1969;-68
2021/12/23 12:48:21;;;;;;;;;;;21.10;54.40;;;;;;5053910;28;1394;-65
2021/12/23 12:50:48;;;;;;;;;;;21.00;54.30;;;;;;5059248;28;1098;-65
2021/12/23 12:53:18;;;;;;;;;;;21.00;54.30;;;;;;5035850;28;1396;-65
2021/12/23 12:55:44;;;;;;;;;;;21.00;54.40;;;;;;5036507;28;1163;-65
2021/12/23 12:58:10;;;;;;;;;;;21.00;54.40;;;;;;5022912;28;1205;-66
2021/12/23 13:00:40;;;;;;;;;;;21.00;54.40;;;;;;5035948;28;1284;-67
2021/12/23 13:03:06;;;;;;;;;;;21.00;54.40;;;;;;5035879;28;1301;-67
2021/12/23 13:05:34;;;;;;;;;;;21.00;54.50;;;;;;5053986;28;1973;-67
2021/12/23 13:08:05;;;;;;;;;;;21.00;54.50;;;;;;5035489;28;1335;-68
2021/12/23 13:10:32;;;;;;;;;;;21.00;54.50;;;;;;5032242;28;1408;-65
2021/12/23 13:12:58;;;;;;;;;;;21.00;54.50;;;;;;5053561;28;1383;-65
2021/12/23 13:15:33;;;;;;;;;;;21.00;54.50;;;;;;5067042;28;1354;-66
2021/12/23 13:18:03;;;;;;;;;;;21.00;54.50;;;;;;5064126;28;1282;-65
2021/12/23 13:20:47;;;;;;;;;;;21.00;54.50;;;;;;5055594;28;1400;-66
2021/12/23 13:23:23;;;;;;;;;;;21.00;54.50;;;;;;5073140;28;1290;-66
2021/12/23 13:25:50;;;;;;;;;;;21.00;54.50;;;;;;5047024;28;1973;-66
2021/12/23 13:28:20;;;;;;;;;;;21.00;54.50;;;;;;5039751;28;1032;-69
2021/12/23 13:30:45;;;;;;;;;;;21.00;54.50;;;;;;5062522;28;1223;-66
2021/12/23 13:33:12;;;;;;;;;;;21.00;54.50;;;;;;5072961;28;1349;-65
2021/12/23 13:35:38;;;;;;;;;;;21.00;54.60;;;;;;5064520;28;1082;-66
2021/12/23 13:38:04;;;;;;;;;;;21.00;54.60;;;;;;5051721;28;1334;-65
2021/12/23 13:40:30;;;;;;;;;;;21.00;54.60;;;;;;5053416;28;1257;-66
2021/12/23 13:42:55;;;;;;;;;;;21.00;54.60;;;;;;5053216;28;1390;-65
2021/12/23 13:45:21;;;;;;;;;;;21.00;54.70;;;;;;5053190;28;1963;-67
2021/12/23 13:47:46;;;;;;;;;;;20.90;54.60;;;;;;5065846;28;1283;-66
2021/12/23 13:50:11;;;;;;;;;;;20.90;54.60;;;;;;5040987;28;2157;-65
2021/12/23 13:52:41;;;;;;;;;;;20.90;54.60;;;;;;5029596;28;1670;-66
2021/12/23 13:55:08;;;;;;;;;;;20.90;54.70;;;;;;5027087;28;2292;-68
2021/12/23 13:57:34;;;;;;;;;;;20.90;54.70;;;;;;5017551;28;1461;-66
2021/12/23 14:00:00;;;;;;;;;;;20.90;54.70;;;;;;5047677;28;1283;-66
2021/12/23 14:02:26;;;;;;;;;;;20.90;54.80;;;;;;5042308;28;1306;-67
2021/12/23 14:04:58;;;;;;;;;;;20.90;54.80;;;;;;5023223;28;1906;-68
2021/12/23 14:07:25;;;;;;;;;;;20.80;54.80;;;;;;5043882;28;1256;-65
2021/12/23 14:09:54;;;;;;;;;;;20.80;54.90;;;;;;5029637;28;1219;-65
2021/12/23 14:12:38;;;;;;;;;;;20.80;54.90;;;;;;5056600;28;1264;-66
2021/12/23 14:15:07;;;;;;;;;;;20.80;54.90;;;;;;5072513;28;1266;-65
2021/12/23 14:17:33;;;;;;;;;;;20.80;55.00;;;;;;5059015;28;1138;-65
2021/12/23 14:23:14;;;;;;;;;;;20.80;55.00;;;;;;5044080;28;1318;-66
2021/12/23 14:26:01;;;;;;;;;;;20.70;55.00;;;;;;5048910;28;1902;-64
2021/12/23 14:28:46;;;;;;;;;;;20.70;55.10;;;;;;5068071;28;1654;-66
2021/12/23 14:31:11;;;;;;;;;;;20.70;55.10;;;;;;5059905;28;1059;-65
2021/12/23 14:33:37;;;;;;;;;;;20.70;55.10;;;;;;5043333;28;1266;-65
2021/12/23 14:36:07;;;;;;;;;;;20.70;55.20;;;;;;5072472;28;1409;-65
2021/12/23 14:38:42;;;;;;;;;;;20.70;55.20;;;;;;5050795;28;1423;-64
2021/12/23 14:41:08;;;;;;;;;;;20.60;55.20;;;;;;5034117;28;1360;-65
2021/12/23 14:43:44;;;;;;;;;;;20.60;55.20;;;;;;5032984;28;1712;-65
2021/12/23 14:46:09;;;;;;;;;;;20.60;55.20;;;;;;5038513;28;1899;-66
2021/12/23 14:48:57;;;;;;;;;;;20.60;55.20;;;;;;5049832;28;1999;-65
2021/12/23 14:51:23;;;;;;;;;;;20.60;55.20;;;;;;5030895;28;1714;-64
2021/12/23 14:54:03;;;;;;;;;;;20.60;55.30;;;;;;5051554;28;1312;-66
2021/12/23 14:56:28;;;;;;;;;;;20.60;55.30;;;;;;5058367;28;1319;-65
2021/12/23 14:59:07;;;;;;;;;;;20.60;55.30;;;;;;5074236;28;1325;-67
2021/12/23 15:01:34;;;;;;;;;;;20.60;55.30;;;;;;5026760;28;1358;-66
2021/12/23 15:04:06;;;;;;;;;;;20.60;55.40;;;;;;5056055;28;1486;-68
2021/12/23 15:06:31;;;;;;;;;;;20.60;55.40;;;;;;5037940;28;1192;-66
2021/12/23 15:08:56;;;;;;;;;;;20.60;55.40;;;;;;5037290;28;1154;-64
2021/12/23 15:11:28;;;;;;;;;;;20.60;55.40;;;;;;5061822;28;1256;-67
2021/12/23 15:13:54;;;;;;;;;;;20.60;55.40;;;;;;5036051;28;1165;-67
2021/12/23 15:16:22;;;;;;;;;;;20.50;55.40;;;;;;5054053;28;1395;-66
2021/12/23 15:19:07;;;;;;;;;;;20.50;56.00;;;;;;5046970;28;936;-66
2021/12/23 15:21:40;;;;;;;;;;;20.50;55.40;;;;;;5054958;28;1288;-68
2021/12/23 15:24:16;;;;;;;;;;;20.50;55.40;;;;;;5021781;28;1969;-66
2021/12/23 15:26:48;;;;;;;;;;;20.50;55.50;;;;;;5050638;28;1081;-67
2021/12/23 15:29:18;;;;;;;;;;;20.50;55.50;;;;;;5054948;28;1310;-67
2021/12/23 15:31:52;;;;;;;;;;;20.50;55.50;;;;;;5037500;28;1350;-67
2021/12/23 15:34:18;;;;;;;;;;;20.50;55.50;;;;;;5055152;28;1275;-66
2021/12/23 15:36:44;;;;;;;;;;;20.50;55.60;;;;;;5037430;28;1119;-66